KPTB

Dinwiddie County Airport

Petersburg, Virginia, USA
METAR KPTB 211435Z AUTO 04006KT 5SM BR OVC010 23/20 A3017 RMK AO2 T02300203
Observed Flight Rules
May-21 @ 14:35 UTC (22 minutes ago) Marginal Visual Flight Rules
Wind Visibility Clouds Conditions
40° at 6 knots 5 miles
  • Overcast at 1,000' AGL
  • Mist
Temperatures Readings
Current 23°C / 73°F
Dewpoint 20°C / 68°F
Humidity 83%
Altimeter 30.17" Hg
Pressure 1022 hPa
Elevation 59
METAR KPTB 211435Z AUTO 04006KT 5SM BR OVC010 23/20 A3017 RMK AO2 T02300203
Observed Flight Rules
May-21 @ 14:35 UTC
(22 minutes ago)
MVFR
Wind Visibility
40° at 6 knots 5 miles
Clouds
  • Overcast at 1,000' AGL
Conditions
  • Mist
Temperature Dewpoint
23°C / 73°F 20°C / 68°F
Humidity Altimeter Pressure
83% 30.17" Hg 1022 hPa